Time;durP1;ratioP1;P1;durP2;ratioP2;P2;SDS_P1;SDS_P2;PMS_P1;PMS_P2;Temp;Humidity;BMP_temperature;BMP_pressure;BME280_temperature;BME280_humidity;BME280_pressure;Samples;Min_cycle;Max_cycle;Signal;HPM_P1;HPM_P2
2022/01/15 00:01:50;;;;;;;48.80;23.13;;;1.20;99.90;;;;;;5040988;28;20174;-75
2022/01/15 00:04:16;;;;;;;65.63;27.90;;;1.10;99.90;;;;;;5037076;28;20747;-75
2022/01/15 00:06:42;;;;;;;55.63;25.87;;;1.20;99.90;;;;;;5047861;28;20293;-75
2022/01/15 00:09:07;;;;;;;52.87;26.63;;;1.20;99.90;;;;;;5050034;28;20182;-76
2022/01/15 00:11:34;;;;;;;63.37;27.07;;;1.10;99.90;;;;;;5040022;28;20341;-75
2022/01/15 00:14:13;;;;;;;61.63;26.43;;;1.10;99.90;;;;;;5040476;28;20209;-76
2022/01/15 00:16:48;;;;;;;67.40;25.23;;;1.10;99.90;;;;;;5038195;28;20189;-76
2022/01/15 00:19:16;;;;;;;62.07;23.53;;;1.10;99.90;;;;;;5056281;22;20206;-78
2022/01/15 00:21:43;;;;;;;59.70;22.67;;;1.10;99.90;;;;;;5014313;28;20183;-78
2022/01/15 00:24:09;;;;;;;69.27;23.07;;;1.00;99.90;;;;;;5008621;28;20190;-78
2022/01/15 00:26:35;;;;;;;46.07;22.37;;;1.00;99.90;;;;;;5005769;28;20844;-79
2022/01/15 00:29:01;;;;;;;46.23;22.40;;;0.90;99.90;;;;;;5006232;28;20732;-81
2022/01/15 00:31:27;;;;;;;42.03;21.83;;;0.90;99.90;;;;;;4992909;28;20280;-81
2022/01/15 00:33:53;;;;;;;46.30;23.60;;;1.00;99.90;;;;;;4997844;28;20212;-81
2022/01/15 00:36:19;;;;;;;46.53;21.70;;;0.90;99.90;;;;;;4998730;28;20176;-81
2022/01/15 00:38:45;;;;;;;45.00;22.87;;;0.90;99.90;;;;;;4971692;28;20217;-79
2022/01/15 00:41:11;;;;;;;41.73;21.60;;;0.90;99.90;;;;;;5018693;28;20290;-81
2022/01/15 00:43:37;;;;;;;39.63;21.27;;;0.80;99.90;;;;;;5003011;28;20186;-79
2022/01/15 00:46:04;;;;;;;38.87;21.67;;;0.80;99.90;;;;;;4981245;28;20183;-80
2022/01/15 00:48:30;;;;;;;42.27;22.00;;;0.80;99.90;;;;;;4998288;28;20202;-80
2022/01/15 00:50:55;;;;;;;43.83;23.00;;;0.90;99.90;;;;;;4997283;28;20207;-81
2022/01/15 00:53:22;;;;;;;40.17;21.73;;;0.90;99.90;;;;;;4981399;28;20191;-79
2022/01/15 00:55:48;;;;;;;45.13;23.20;;;0.90;99.90;;;;;;4979511;28;20179;-79
2022/01/15 00:58:14;;;;;;;40.83;22.33;;;0.80;99.90;;;;;;4981777;28;20234;-77
2022/01/15 01:00:40;;;;;;;41.83;23.37;;;0.80;99.90;;;;;;4985617;28;20206;-77
2022/01/15 01:03:06;;;;;;;40.13;22.13;;;0.90;99.90;;;;;;5011935;28;20225;-75
2022/01/15 01:05:32;;;;;;;36.57;21.10;;;0.90;99.90;;;;;;5008460;28;20621;-80
2022/01/15 01:07:59;;;;;;;36.97;20.53;;;0.90;99.90;;;;;;4992357;28;20195;-79
2022/01/15 01:23:42;;;;;;;29.23;16.07;;;1.00;99.90;;;;;;5024781;28;20175;-76
2022/01/15 01:26:21;;;;;;;30.73;16.20;;;1.00;99.90;;;;;;5012512;28;20794;-78
2022/01/15 01:28:56;;;;;;;28.73;15.47;;;1.10;99.90;;;;;;4996287;28;20186;-77
2022/01/15 01:31:29;;;;;;;27.73;15.70;;;1.10;99.90;;;;;;4984000;28;20210;-77
2022/01/15 01:34:07;;;;;;;30.57;17.43;;;1.10;99.90;;;;;;5006854;28;20205;-77
2022/01/15 01:36:47;;;;;;;29.27;16.20;;;1.20;99.90;;;;;;5003658;28;20262;-77
2022/01/15 01:39:18;;;;;;;33.47;17.60;;;1.10;99.90;;;;;;5007300;28;20238;-76
2022/01/15 01:42:03;;;;;;;29.70;16.70;;;1.20;99.90;;;;;;5011619;28;20199;-78
2022/01/15 01:44:29;;;;;;;28.20;16.60;;;1.10;99.90;;;;;;4999036;28;20179;-77
2022/01/15 01:47:03;;;;;;;29.33;16.30;;;1.00;99.90;;;;;;4991346;28;20589;-78
2022/01/15 01:49:29;;;;;;;28.50;16.83;;;1.00;99.90;;;;;;4988287;28;20446;-79
2022/01/15 01:51:55;;;;;;;30.23;16.80;;;0.90;99.90;;;;;;5009474;28;20218;-78
2022/01/15 01:54:21;;;;;;;29.83;16.13;;;0.90;99.90;;;;;;4988563;28;20262;-79
2022/01/15 01:56:48;;;;;;;27.70;15.50;;;0.90;99.90;;;;;;5015014;28;20201;-76
2022/01/15 01:59:17;;;;;;;27.80;16.13;;;0.90;99.90;;;;;;5010818;28;20214;-76
2022/01/15 02:01:43;;;;;;;33.33;17.37;;;0.90;99.90;;;;;;5007734;28;20182;-76
2022/01/15 02:04:09;;;;;;;29.17;16.83;;;0.90;99.90;;;;;;4995602;28;20179;-77
2022/01/15 02:06:36;;;;;;;30.73;16.13;;;0.90;99.90;;;;;;5008160;28;20678;-76
2022/01/15 02:09:08;;;;;;;28.23;16.03;;;0.80;99.90;;;;;;5007488;28;20873;-77
2022/01/15 02:11:34;;;;;;;29.87;16.40;;;0.90;99.90;;;;;;5004160;28;20559;-75
2022/01/15 02:14:00;;;;;;;31.37;16.53;;;0.90;99.90;;;;;;5003253;28;20193;-75
2022/01/15 02:16:26;;;;;;;28.03;15.77;;;0.90;99.90;;;;;;5006956;28;20183;-75
2022/01/15 02:18:55;;;;;;;28.00;15.87;;;0.90;99.90;;;;;;5009864;28;20215;-77
2022/01/15 02:24:07;;;;;;;28.27;16.17;;;1.00;99.90;;;;;;5001219;28;20221;-75
2022/01/15 02:26:37;;;;;;;24.33;14.63;;;1.10;99.90;;;;;;5008354;28;20209;-76
2022/01/15 02:29:04;;;;;;;31.87;18.10;;;1.10;99.90;;;;;;5007014;28;20175;-78
2022/01/15 02:31:31;;;;;;;28.23;16.00;;;1.10;99.90;;;;;;5011943;28;20190;-78
2022/01/15 02:34:01;;;;;;;27.57;15.80;;;1.20;99.90;;;;;;4992613;28;20183;-77
2022/01/15 02:36:33;;;;;;;26.80;14.93;;;1.20;99.90;;;;;;5007416;28;20179;-78
2022/01/15 02:39:00;;;;;;;25.27;14.70;;;1.20;99.90;;;;;;5005239;28;20213;-75
2022/01/15 02:41:28;;;;;;;29.17;16.23;;;1.20;99.90;;;;;;5011682;28;20195;-78
2022/01/15 02:43:55;;;;;;;31.33;17.60;;;1.20;99.90;;;;;;4993996;28;20191;-78
2022/01/15 02:46:46;;;;;;;29.87;16.10;;;1.20;99.90;;;;;;5012937;28;20187;-78
2022/01/15 02:49:09;;;;;;;31.37;16.53;;;1.20;99.90;;;;;;5008143;28;20257;-77
2022/01/15 02:51:36;;;;;;;29.23;16.57;;;1.20;99.90;;;;;;5009906;28;20203;-75
2022/01/15 02:54:03;;;;;;;27.63;16.07;;;1.20;99.90;;;;;;5022754;28;20182;-76
2022/01/15 02:56:35;;;;;;;28.00;15.73;;;1.20;99.90;;;;;;5005583;28;20187;-76
2022/01/15 02:59:04;;;;;;;31.90;17.20;;;1.20;99.90;;;;;;5008248;28;20289;-76
2022/01/15 03:01:31;;;;;;;27.37;16.60;;;1.20;99.90;;;;;;5007525;28;20228;-76
2022/01/15 03:03:57;;;;;;;28.93;15.57;;;1.20;99.90;;;;;;4993977;28;20175;-76
2022/01/15 03:06:23;;;;;;;26.50;15.83;;;1.20;99.90;;;;;;4999975;28;20179;-76
2022/01/15 03:08:51;;;;;;;30.87;17.03;;;1.20;99.90;;;;;;4994603;28;20198;-76
2022/01/15 03:11:17;;;;;;;28.20;15.97;;;1.20;99.90;;;;;;5000820;28;20687;-76
2022/01/15 03:13:44;;;;;;;26.27;15.80;;;1.10;99.90;;;;;;4984490;28;20180;-76
2022/01/15 03:16:18;;;;;;;25.70;15.63;;;1.10;99.90;;;;;;5007119;28;20565;-76
2022/01/15 03:18:44;;;;;;;25.77;15.97;;;1.10;99.90;;;;;;4974426;28;20249;-76
2022/01/15 03:21:10;;;;;;;27.77;17.00;;;1.10;99.90;;;;;;4984583;28;20206;-76
2022/01/15 03:23:37;;;;;;;25.80;15.40;;;1.10;99.90;;;;;;5024872;28;20192;-76
2022/01/15 03:26:04;;;;;;;26.50;15.97;;;1.10;99.90;;;;;;4991467;28;20552;-76
2022/01/15 03:28:30;;;;;;;28.17;16.90;;;1.10;99.90;;;;;;5009825;28;20191;-76
2022/01/15 03:30:56;;;;;;;26.90;16.67;;;1.10;99.90;;;;;;5012696;28;20213;-76
2022/01/15 03:33:21;;;;;;;25.40;15.93;;;1.10;99.90;;;;;;5013182;28;20672;-76
2022/01/15 03:35:47;;;;;;;27.10;16.03;;;1.00;99.90;;;;;;5011183;28;20245;-76
2022/01/15 03:38:13;;;;;;;25.57;15.63;;;1.10;99.90;;;;;;5013855;28;20207;-76
2022/01/15 03:40:39;;;;;;;26.23;15.33;;;1.10;99.90;;;;;;4995824;28;20200;-76
2022/01/15 03:43:05;;;;;;;29.30;16.67;;;1.10;99.90;;;;;;5006090;28;20194;-76
2022/01/15 03:45:33;;;;;;;31.13;18.17;;;1.10;99.90;;;;;;5008200;28;20185;-76
2022/01/15 03:47:59;;;;;;;26.87;15.37;;;1.10;99.90;;;;;;5012992;28;20186;-76
2022/01/15 03:50:26;;;;;;;25.87;15.60;;;1.10;99.90;;;;;;5010561;28;21505;-76
2022/01/15 03:52:54;;;;;;;27.83;16.13;;;1.10;99.90;;;;;;5010139;28;20727;-76
2022/01/15 03:55:21;;;;;;;26.33;14.27;;;1.10;99.90;;;;;;5009683;28;20260;-76
2022/01/15 03:57:47;;;;;;;27.30;15.43;;;1.20;99.90;;;;;;5010822;28;20619;-76
2022/01/15 04:00:20;;;;;;;27.53;15.07;;;1.20;99.90;;;;;;5012543;28;20222;-76
2022/01/15 04:02:47;;;;;;;29.50;16.03;;;1.20;99.90;;;;;;5010624;28;20183;-76
2022/01/15 04:05:13;;;;;;;27.93;16.07;;;1.20;99.90;;;;;;5011330;28;20649;-76
2022/01/15 04:07:39;;;;;;;28.17;16.10;;;1.20;99.90;;;;;;5012399;28;20214;-76
2022/01/15 04:10:08;;;;;;;31.10;17.03;;;1.20;99.90;;;;;;5010532;28;20770;-76
2022/01/15 04:12:34;;;;;;;30.80;16.53;;;1.10;99.90;;;;;;5001301;28;20202;-76
2022/01/15 04:14:59;;;;;;;29.87;16.23;;;1.20;99.90;;;;;;5034335;23;20223;-75
2022/01/15 04:17:26;;;;;;;29.77;16.50;;;1.20;99.90;;;;;;5032776;28;20197;-75
2022/01/15 04:19:52;;;;;;;31.27;16.90;;;1.20;99.90;;;;;;5031057;28;20919;-75
2022/01/15 04:22:18;;;;;;;34.73;18.50;;;1.30;99.90;;;;;;5032261;28;20170;-74
2022/01/15 04:24:44;;;;;;;31.13;17.33;;;1.40;99.90;;;;;;5031953;28;20185;-75
2022/01/15 04:27:10;;;;;;;30.77;16.97;;;1.40;99.90;;;;;;5034092;28;20178;-74
2022/01/15 04:29:36;;;;;;;27.03;16.27;;;1.30;99.90;;;;;;5037309;28;20204;-75
2022/01/15 04:32:02;;;;;;;29.23;17.57;;;1.30;99.90;;;;;;5033801;28;20820;-74
2022/01/15 04:34:30;;;;;;;25.60;15.97;;;1.30;99.90;;;;;;5030072;28;20199;-76
2022/01/15 04:37:03;;;;;;;32.03;17.30;;;1.20;99.90;;;;;;5011355;28;20191;-76
2022/01/15 04:39:29;;;;;;;27.67;16.47;;;1.20;99.90;;;;;;5032191;28;20225;-75
2022/01/15 04:41:54;;;;;;;30.63;18.30;;;1.30;99.90;;;;;;5030640;28;20236;-75
2022/01/15 04:44:20;;;;;;;30.50;16.73;;;1.20;99.90;;;;;;5023504;28;20210;-75
2022/01/15 04:46:48;;;;;;;29.83;17.27;;;1.20;99.90;;;;;;5033195;28;20182;-77
2022/01/15 04:49:15;;;;;;;31.70;18.47;;;1.20;99.90;;;;;;5032810;28;20182;-75
2022/01/15 04:51:41;;;;;;;33.77;17.20;;;1.10;99.90;;;;;;5033123;28;20179;-76
2022/01/15 04:54:07;;;;;;;32.70;18.27;;;1.10;99.90;;;;;;5032282;28;20248;-76
2022/01/15 04:56:32;;;;;;;30.80;16.70;;;1.20;99.90;;;;;;5017202;28;20670;-75
2022/01/15 04:58:58;;;;;;;29.53;16.50;;;1.20;99.90;;;;;;5022260;28;20249;-76
2022/01/15 05:01:24;;;;;;;26.53;15.40;;;1.20;99.90;;;;;;5030477;28;20186;-76
2022/01/15 05:03:49;;;;;;;26.10;15.23;;;1.20;99.90;;;;;;5031637;28;20198;-75
2022/01/15 05:06:15;;;;;;;35.40;20.80;;;1.20;99.90;;;;;;5031709;28;20243;-75
2022/01/15 05:08:44;;;;;;;31.37;18.30;;;1.20;99.90;;;;;;5032701;28;20187;-76
2022/01/15 05:11:21;;;;;;;32.30;17.67;;;1.20;99.90;;;;;;5032169;28;20171;-75
2022/01/15 05:13:47;;;;;;;29.07;16.50;;;1.20;99.90;;;;;;5030659;28;20770;-76
2022/01/15 05:16:12;;;;;;;33.13;17.53;;;1.20;99.90;;;;;;5030437;28;20240;-76
2022/01/15 05:18:38;;;;;;;30.43;17.73;;;1.30;99.90;;;;;;5033033;28;20301;-75
2022/01/15 05:21:04;;;;;;;31.23;17.10;;;1.20;99.90;;;;;;5031495;28;20637;-75
2022/01/15 05:23:29;;;;;;;32.50;17.27;;;1.20;99.90;;;;;;5030561;28;20240;-76
2022/01/15 05:25:55;;;;;;;28.63;16.87;;;1.20;99.90;;;;;;5032561;28;20182;-76
2022/01/15 05:28:21;;;;;;;28.10;16.00;;;1.20;99.90;;;;;;5014712;28;20289;-75
2022/01/15 05:30:46;;;;;;;26.80;15.83;;;1.20;99.90;;;;;;5031296;28;20229;-76
2022/01/15 05:33:12;;;;;;;30.27;16.90;;;1.20;99.90;;;;;;5030638;28;20702;-76
2022/01/15 05:35:38;;;;;;;28.90;17.00;;;1.20;99.90;;;;;;5029517;28;20244;-75
2022/01/15 05:38:04;;;;;;;27.57;16.53;;;1.20;99.90;;;;;;5030018;28;20209;-76
2022/01/15 05:40:29;;;;;;;33.10;16.87;;;1.20;99.90;;;;;;5031256;28;20186;-76
2022/01/15 05:42:55;;;;;;;25.10;15.27;;;1.30;99.90;;;;;;5026957;28;20202;-76
2022/01/15 05:45:21;;;;;;;29.70;16.17;;;1.20;99.90;;;;;;5022163;28;20186;-75
2022/01/15 05:47:48;;;;;;;30.33;16.77;;;1.10;99.90;;;;;;5030470;28;20182;-75
2022/01/15 05:50:14;;;;;;;28.83;16.77;;;1.10;99.90;;;;;;5030981;28;20186;-75
2022/01/15 05:52:39;;;;;;;28.83;16.67;;;1.10;99.90;;;;;;5031271;28;20208;-75
2022/01/15 05:55:06;;;;;;;29.13;17.00;;;1.10;99.90;;;;;;5028579;28;20178;-76
2022/01/15 05:57:32;;;;;;;32.17;17.13;;;1.10;99.90;;;;;;5029708;28;20186;-76
2022/01/15 05:59:58;;;;;;;31.20;17.80;;;1.20;99.90;;;;;;5031013;28;20595;-76
2022/01/15 06:02:24;;;;;;;33.73;18.10;;;1.20;99.90;;;;;;5029553;28;20255;-75
2022/01/15 06:04:50;;;;;;;30.40;16.47;;;1.20;99.90;;;;;;5030327;28;20175;-76
2022/01/15 06:07:16;;;;;;;33.40;18.00;;;1.20;99.90;;;;;;5037576;28;20224;-76
2022/01/15 06:09:42;;;;;;;32.23;17.87;;;1.20;99.90;;;;;;5015423;28;20210;-76
2022/01/15 06:12:09;;;;;;;28.27;15.23;;;1.20;99.90;;;;;;5028810;28;20216;-76
2022/01/15 06:14:35;;;;;;;29.17;17.17;;;1.20;99.90;;;;;;5028597;28;20270;-76
2022/01/15 06:17:03;;;;;;;26.03;15.23;;;1.20;99.90;;;;;;5029947;28;20269;-76
2022/01/15 06:19:29;;;;;;;28.03;16.33;;;1.10;99.90;;;;;;5030234;28;20202;-76
2022/01/15 06:21:56;;;;;;;29.40;16.03;;;1.10;99.90;;;;;;5028746;28;20224;-76
2022/01/15 06:24:22;;;;;;;28.40;16.17;;;1.20;99.90;;;;;;5030633;28;20716;-76
2022/01/15 06:26:48;;;;;;;29.90;16.23;;;1.10;99.90;;;;;;5029595;28;20182;-76
2022/01/15 06:29:14;;;;;;;27.07;15.53;;;1.10;99.90;;;;;;5012233;28;20680;-75
2022/01/15 06:31:40;;;;;;;30.87;16.97;;;1.10;99.90;;;;;;5029584;28;20324;-75
2022/01/15 06:34:05;;;;;;;30.23;16.67;;;1.20;99.90;;;;;;5029426;28;20198;-76
2022/01/15 06:36:31;;;;;;;33.30;16.83;;;1.30;99.90;;;;;;5029983;28;20174;-75
2022/01/15 06:38:57;;;;;;;30.10;16.00;;;1.30;99.90;;;;;;5016421;28;20194;-75
2022/01/15 06:41:23;;;;;;;32.93;17.93;;;1.40;99.90;;;;;;5020831;28;20201;-76
2022/01/15 06:43:49;;;;;;;28.60;16.37;;;1.40;99.90;;;;;;5028095;28;20570;-76
2022/01/15 06:46:14;;;;;;;28.40;16.10;;;1.40;99.90;;;;;;5029835;28;20190;-76
2022/01/15 06:48:40;;;;;;;32.60;17.27;;;1.40;99.90;;;;;;5026974;28;20651;-76
2022/01/15 06:51:06;;;;;;;28.83;15.77;;;1.40;99.90;;;;;;5031574;28;20198;-76
2022/01/15 06:53:31;;;;;;;25.97;15.33;;;1.40;99.90;;;;;;5028845;28;20285;-76
2022/01/15 06:55:57;;;;;;;29.43;16.30;;;1.40;99.90;;;;;;5022266;28;20397;-76
2022/01/15 06:58:23;;;;;;;32.20;17.17;;;1.40;99.90;;;;;;5045982;28;20447;-76
2022/01/15 07:00:49;;;;;;;30.40;16.23;;;1.40;99.90;;;;;;5004138;28;20174;-76
2022/01/15 07:03:16;;;;;;;27.70;14.83;;;1.40;99.90;;;;;;5028713;28;20203;-76
2022/01/15 07:05:41;;;;;;;28.57;15.63;;;1.40;99.90;;;;;;5030525;28;20700;-76
2022/01/15 07:08:07;;;;;;;37.20;18.27;;;1.40;99.90;;;;;;5032278;28;20183;-75
2022/01/15 07:10:34;;;;;;;33.73;17.07;;;1.40;99.90;;;;;;5029999;28;20178;-76
2022/01/15 07:12:59;;;;;;;34.70;18.30;;;1.50;99.90;;;;;;5032633;28;20232;-76
2022/01/15 07:15:26;;;;;;;37.63;18.87;;;1.60;99.90;;;;;;5034378;28;20661;-75
2022/01/15 07:17:52;;;;;;;33.80;17.47;;;1.60;99.90;;;;;;5039793;28;20233;-76
2022/01/15 07:20:19;;;;;;;31.97;17.27;;;1.60;99.90;;;;;;5046579;28;20669;-76
2022/01/15 07:22:45;;;;;;;38.83;19.83;;;1.60;99.90;;;;;;5034031;28;20682;-76
2022/01/15 07:25:12;;;;;;;38.47;18.43;;;1.60;99.90;;;;;;5022575;28;20198;-76
2022/01/15 07:27:38;;;;;;;36.77;18.10;;;1.60;99.90;;;;;;5032522;28;20178;-76
2022/01/15 07:30:06;;;;;;;42.07;20.73;;;1.60;99.90;;;;;;5031225;28;20171;-76
2022/01/15 07:32:32;;;;;;;33.50;17.57;;;1.60;99.90;;;;;;5034758;28;20225;-76
2022/01/15 07:34:58;;;;;;;34.73;17.93;;;1.60;99.90;;;;;;5033338;28;20198;-75
2022/01/15 07:37:24;;;;;;;35.57;17.73;;;1.60;99.90;;;;;;5015749;28;20233;-75
2022/01/15 07:39:50;;;;;;;32.77;17.10;;;1.60;99.90;;;;;;5032648;28;20179;-76
2022/01/15 07:42:16;;;;;;;37.43;17.63;;;1.60;99.90;;;;;;5028894;28;20189;-76
2022/01/15 07:44:42;;;;;;;38.13;18.83;;;1.60;99.90;;;;;;5028625;28;20535;-76
2022/01/15 07:47:08;;;;;;;36.13;18.13;;;1.60;99.90;;;;;;5032427;28;20232;-76
2022/01/15 07:49:34;;;;;;;38.03;18.87;;;1.60;99.90;;;;;;5029198;28;20240;-76
2022/01/15 07:52:01;;;;;;;37.97;19.10;;;1.60;99.90;;;;;;5026838;28;20179;-76
2022/01/15 07:54:27;;;;;;;37.43;19.03;;;1.70;99.90;;;;;;5021110;28;20206;-76
2022/01/15 07:56:55;;;;;;;37.47;18.80;;;1.60;99.90;;;;;;5031829;28;20531;-75
2022/01/15 07:59:25;;;;;;;38.07;18.70;;;1.70;99.90;;;;;;5032647;28;20222;-75
2022/01/15 08:01:51;;;;;;;37.47;18.23;;;1.70;99.90;;;;;;5033548;28;20186;-75
2022/01/15 08:04:17;;;;;;;37.53;18.40;;;1.70;99.90;;;;;;5030681;28;20564;-75
2022/01/15 08:06:42;;;;;;;38.40;20.33;;;1.80;99.90;;;;;;5033039;28;20182;-75
2022/01/15 08:09:09;;;;;;;36.83;19.13;;;1.80;99.90;;;;;;5031839;28;20189;-75
2022/01/15 08:11:35;;;;;;;38.30;18.73;;;1.80;99.90;;;;;;5032156;28;20179;-75
2022/01/15 08:14:01;;;;;;;34.07;17.33;;;1.80;99.90;;;;;;5030490;28;20206;-75
2022/01/15 08:16:27;;;;;;;37.80;17.57;;;1.80;99.90;;;;;;5032252;28;20202;-76
2022/01/15 08:18:53;;;;;;;38.23;19.53;;;1.80;99.90;;;;;;5031183;28;20210;-75
2022/01/15 08:21:19;;;;;;;39.67;19.37;;;1.90;99.90;;;;;;5030307;28;20178;-75
2022/01/15 08:23:44;;;;;;;43.20;19.40;;;1.90;99.90;;;;;;5030353;28;20209;-75
2022/01/15 08:26:10;;;;;;;44.73;20.87;;;2.00;99.90;;;;;;5029660;28;20201;-75
2022/01/15 08:28:39;;;;;;;38.80;19.10;;;2.00;99.90;;;;;;5030786;28;20191;-75
2022/01/15 08:31:06;;;;;;;37.73;19.10;;;2.10;99.90;;;;;;5030138;28;20186;-75
2022/01/15 08:33:32;;;;;;;36.60;18.53;;;2.10;99.90;;;;;;5030499;28;20202;-75
2022/01/15 08:35:58;;;;;;;37.40;19.30;;;2.00;99.90;;;;;;5028181;28;20193;-75
2022/01/15 08:38:24;;;;;;;40.00;19.57;;;2.10;99.90;;;;;;5021000;28;20206;-75
2022/01/15 08:40:50;;;;;;;43.27;20.63;;;2.20;99.90;;;;;;5015935;28;20179;-75
2022/01/15 08:43:17;;;;;;;48.67;22.67;;;2.20;99.90;;;;;;5034289;28;20670;-74
2022/01/15 08:45:43;;;;;;;42.93;20.70;;;2.20;99.90;;;;;;5032459;28;20190;-74
2022/01/15 08:48:10;;;;;;;40.83;20.53;;;2.20;99.90;;;;;;5031291;28;21037;-75
2022/01/15 08:50:36;;;;;;;40.70;20.83;;;2.20;99.90;;;;;;5032958;28;20189;-75
2022/01/15 08:53:06;;;;;;;41.43;19.90;;;2.20;99.90;;;;;;5031682;28;20195;-77
2022/01/15 08:55:35;;;;;;;45.53;22.17;;;2.20;99.90;;;;;;5046347;28;20174;-77
2022/01/15 08:58:01;;;;;;;46.40;21.67;;;2.30;99.90;;;;;;5032830;28;20195;-78
2022/01/15 09:00:28;;;;;;;42.93;21.87;;;2.30;99.90;;;;;;5034245;28;20185;-75
2022/01/15 09:02:55;;;;;;;40.20;20.60;;;2.30;99.90;;;;;;5023424;28;20611;-77
2022/01/15 09:05:22;;;;;;;41.97;21.03;;;2.30;99.90;;;;;;5031454;28;20305;-74
2022/01/15 09:07:48;;;;;;;51.50;22.87;;;2.40;99.90;;;;;;5031226;28;20201;-75
2022/01/15 09:10:14;;;;;;;50.70;22.23;;;2.40;99.90;;;;;;5031797;28;20646;-74
2022/01/15 09:12:40;;;;;;;47.47;22.07;;;2.40;99.90;;;;;;5032891;28;20202;-74
2022/01/15 09:15:07;;;;;;;45.00;21.80;;;2.40;99.90;;;;;;5030042;28;20201;-74
2022/01/15 09:17:33;;;;;;;46.80;22.17;;;2.40;99.90;;;;;;5030390;28;20179;-74
2022/01/15 09:19:59;;;;;;;52.27;23.43;;;2.40;99.90;;;;;;5025419;28;20175;-74
2022/01/15 09:22:25;;;;;;;53.83;23.10;;;2.50;99.90;;;;;;5030780;28;20178;-74
2022/01/15 09:24:51;;;;;;;52.90;23.43;;;2.60;99.90;;;;;;5031129;28;20678;-74
2022/01/15 09:30:13;;;;;;;55.40;23.20;;;2.60;99.90;;;;;;5029801;28;20178;-74
2022/01/15 09:32:50;;;;;;;49.90;21.70;;;2.70;99.90;;;;;;5021591;28;20810;-74
2022/01/15 09:35:20;;;;;;;50.70;22.53;;;2.70;99.90;;;;;;5039813;28;20549;-74
2022/01/15 09:37:52;;;;;;;51.13;23.23;;;2.80;99.90;;;;;;5034071;28;20227;-74
2022/01/15 09:40:20;;;;;;;54.00;23.87;;;2.90;99.90;;;;;;5030429;28;20174;-74
2022/01/15 09:42:47;;;;;;;58.50;24.80;;;2.90;99.90;;;;;;5028123;28;20202;-74
2022/01/15 09:45:14;;;;;;;51.93;23.43;;;2.80;99.90;;;;;;5030610;28;20273;-74
2022/01/15 09:47:41;;;;;;;52.50;23.23;;;2.80;99.90;;;;;;5031833;28;20174;-74
2022/01/15 09:50:10;;;;;;;49.40;22.33;;;2.90;99.90;;;;;;5029427;28;20186;-74
2022/01/15 09:52:36;;;;;;;43.30;20.10;;;2.90;99.90;;;;;;5030718;28;20373;-74
2022/01/15 09:55:05;;;;;;;47.60;21.27;;;3.00;99.90;;;;;;5028864;28;20533;-74
2022/01/15 09:57:30;;;;;;;47.93;20.93;;;3.00;99.90;;;;;;5031150;28;20181;-75
2022/01/15 09:59:56;;;;;;;52.93;22.97;;;3.00;99.90;;;;;;5030528;28;20261;-74
2022/01/15 10:02:22;;;;;;;53.57;22.53;;;3.00;99.90;;;;;;5031681;28;20187;-75
2022/01/15 10:04:48;;;;;;;49.30;21.60;;;3.00;99.90;;;;;;5031096;28;20718;-75
2022/01/15 10:07:15;;;;;;;53.40;21.90;;;3.00;99.90;;;;;;5025510;28;20261;-74
2022/01/15 10:09:43;;;;;;;48.10;21.03;;;3.10;99.90;;;;;;5026442;28;20190;-75
2022/01/15 10:12:11;;;;;;;48.93;21.70;;;3.20;99.90;;;;;;5028461;28;20190;-75
2022/01/15 10:14:39;;;;;;;54.67;23.73;;;3.20;99.90;;;;;;5025982;28;20201;-74
2022/01/15 10:17:25;;;;;;;54.13;23.33;;;3.30;99.90;;;;;;5031149;28;20549;-75
2022/01/15 10:19:51;;;;;;;48.63;21.40;;;3.20;99.90;;;;;;5029541;28;20210;-74
2022/01/15 10:22:22;;;;;;;53.03;24.13;;;3.30;99.90;;;;;;5030248;28;20328;-75
2022/01/15 10:24:59;;;;;;;54.43;24.20;;;3.30;99.90;;;;;;5028029;28;20185;-75
2022/01/15 10:27:30;;;;;;;53.70;22.73;;;3.30;99.90;;;;;;5029848;28;20178;-75
2022/01/15 10:30:07;;;;;;;51.90;22.13;;;3.40;99.90;;;;;;5023742;28;20178;-75
2022/01/15 10:32:51;;;;;;;57.67;23.80;;;3.40;99.90;;;;;;5025928;28;20202;-75
2022/01/15 10:35:17;;;;;;;47.77;21.60;;;3.40;99.90;;;;;;5014201;28;20179;-75
2022/01/15 10:37:56;;;;;;;54.37;22.23;;;3.50;99.90;;;;;;5029245;28;20324;-75
2022/01/15 10:40:25;;;;;;;54.87;22.70;;;3.60;99.90;;;;;;5022878;28;20340;-75
2022/01/15 10:42:56;;;;;;;49.17;21.97;;;3.60;99.90;;;;;;5025192;28;20256;-76
2022/01/15 10:45:24;;;;;;;46.37;21.47;;;3.70;99.90;;;;;;5025823;28;20179;-76
2022/01/15 10:47:53;;;;;;;48.63;22.63;;;3.70;99.90;;;;;;5029936;28;20174;-75
2022/01/15 10:50:25;;;;;;;46.27;21.50;;;3.80;99.90;;;;;;5030057;28;20182;-75
2022/01/15 10:52:52;;;;;;;45.83;21.13;;;3.80;99.90;;;;;;5029419;28;20273;-75
2022/01/15 10:55:27;;;;;;;43.03;20.60;;;3.80;99.90;;;;;;5028520;28;20708;-75
2022/01/15 10:58:02;;;;;;;48.83;21.53;;;3.90;99.90;;;;;;5026419;28;20209;-75
2022/01/15 11:00:37;;;;;;;46.37;21.67;;;3.90;99.90;;;;;;5010451;28;20546;-76
2022/01/15 11:03:05;;;;;;;38.83;19.93;;;4.00;99.90;;;;;;5018575;28;20194;-75
2022/01/15 11:05:35;;;;;;;41.97;21.07;;;4.10;99.90;;;;;;5032954;28;20388;-75
2022/01/15 11:08:09;;;;;;;42.27;19.70;;;4.10;99.90;;;;;;5020794;28;20176;-75
2022/01/15 11:10:42;;;;;;;40.47;20.13;;;4.20;99.90;;;;;;5019237;28;20230;-75
2022/01/15 11:13:11;;;;;;;33.57;18.07;;;4.30;99.90;;;;;;5029293;28;20206;-75
2022/01/15 11:15:41;;;;;;;38.27;18.63;;;4.40;99.90;;;;;;5032405;28;20182;-75
2022/01/15 11:18:19;;;;;;;33.27;17.33;;;4.50;99.90;;;;;;5029702;28;20198;-80
2022/01/15 11:20:49;;;;;;;32.27;16.60;;;4.50;99.90;;;;;;5028748;28;20183;-75
2022/01/15 11:23:18;;;;;;;32.50;17.47;;;4.60;99.90;;;;;;5024205;28;20239;-75
2022/01/15 11:25:44;;;;;;;31.33;16.33;;;4.60;99.90;;;;;;5020144;28;20186;-75
2022/01/15 11:28:11;;;;;;;30.53;16.57;;;4.70;99.90;;;;;;5029134;28;20244;-75
2022/01/15 11:30:37;;;;;;;28.13;16.53;;;4.80;99.90;;;;;;5023407;28;20823;-75
2022/01/15 11:33:03;;;;;;;29.97;16.70;;;4.80;99.90;;;;;;5008919;28;20199;-75
2022/01/15 11:35:46;;;;;;;27.83;16.13;;;4.80;99.90;;;;;;5011025;28;20202;-75
2022/01/15 11:38:39;;;;;;;28.17;16.23;;;4.80;99.90;;;;;;5007237;28;20206;-75
2022/01/15 11:41:21;;;;;;;27.47;15.23;;;4.80;99.90;;;;;;5030008;28;20175;-75
2022/01/15 11:43:47;;;;;;;27.23;13.87;;;4.80;99.90;;;;;;5012626;28;20195;-75
2022/01/15 11:46:34;;;;;;;24.30;12.93;;;4.80;99.90;;;;;;5021154;28;20183;-75
2022/01/15 11:49:31;;;;;;;25.07;13.57;;;4.80;99.90;;;;;;5027640;28;20201;-75
2022/01/15 11:52:05;;;;;;;24.23;13.80;;;4.90;99.90;;;;;;5024388;28;20609;-76
2022/01/15 11:54:32;;;;;;;22.17;12.70;;;4.90;99.90;;;;;;5024381;28;20289;-76
2022/01/15 11:57:03;;;;;;;24.20;13.23;;;4.90;99.90;;;;;;5032300;28;20332;-76
2022/01/15 11:59:29;;;;;;;22.17;13.10;;;4.90;99.90;;;;;;5032480;28;20203;-79
2022/01/15 12:02:01;;;;;;;21.60;13.50;;;4.90;99.90;;;;;;5031122;28;20666;-76
2022/01/15 12:04:33;;;;;;;20.80;12.93;;;5.00;99.90;;;;;;5040119;28;20209;-76
2022/01/15 12:09:44;;;;;;;18.47;12.07;;;5.10;99.90;;;;;;5028003;28;20550;-77
2022/01/15 12:12:19;;;;;;;23.17;13.63;;;5.10;99.90;;;;;;5026748;28;20179;-75
2022/01/15 12:14:58;;;;;;;20.80;13.70;;;5.10;99.90;;;;;;5028020;28;20601;-75
2022/01/15 12:17:30;;;;;;;19.23;11.80;;;5.10;99.90;;;;;;5024924;28;20197;-75
2022/01/15 12:20:02;;;;;;;20.27;12.53;;;5.10;99.90;;;;;;5024957;28;20265;-74
2022/01/15 12:22:46;;;;;;;19.37;11.73;;;5.20;99.90;;;;;;5025273;28;20212;-76
2022/01/15 12:25:16;;;;;;;18.10;11.57;;;5.10;99.90;;;;;;5021754;28;20179;-77
2022/01/15 12:27:46;;;;;;;19.83;12.13;;;5.20;99.90;;;;;;5026574;28;20590;-76
2022/01/15 12:30:20;;;;;;;20.87;12.70;;;5.40;99.90;;;;;;5025648;28;20592;-74
2022/01/15 12:32:51;;;;;;;22.87;13.57;;;5.30;99.90;;;;;;5032243;28;20210;-82
2022/01/15 12:35:23;;;;;;;20.07;11.87;;;5.30;99.90;;;;;;5016623;28;20193;-72
2022/01/15 12:38:27;;;;;;;18.20;12.23;;;5.30;99.90;;;;;;5028663;28;20198;-71
2022/01/15 12:41:07;;;;;;;17.13;11.40;;;5.30;99.90;;;;;;5026011;28;20211;-71
2022/01/15 12:43:41;;;;;;;20.93;12.87;;;5.40;99.90;;;;;;5029255;28;20209;-71
2022/01/15 12:46:11;;;;;;;19.90;12.23;;;5.50;99.90;;;;;;5030456;28;20236;-72
2022/01/15 12:48:40;;;;;;;17.27;11.70;;;5.50;99.90;;;;;;5031315;28;20174;-71
2022/01/15 12:51:09;;;;;;;20.17;12.10;;;5.50;99.90;;;;;;5031719;28;20169;-71
2022/01/15 12:53:38;;;;;;;19.63;12.70;;;5.50;99.90;;;;;;5031204;28;20201;-72
2022/01/15 12:56:13;;;;;;;19.60;13.50;;;5.40;99.90;;;;;;5027742;28;20721;-72
2022/01/15 12:58:40;;;;;;;20.67;12.77;;;5.40;99.90;;;;;;5031052;28;20201;-71
2022/01/15 13:01:06;;;;;;;21.07;12.70;;;5.50;99.90;;;;;;5031946;28;20170;-72
2022/01/15 13:03:36;;;;;;;21.10;13.47;;;5.40;99.90;;;;;;5028987;28;20205;-72